^^
Meteo Knjazevac Station Historical Data
Daily Summary for July 20, 2021 Units:  Both    English   Metric
Daily Weekly Monthly Yearly Custom
  High: Low: Average:
Temperature: 57.9 °F /  14.4 °C 47.8 °F /  8.8 °C 51.6 °F /  10.9 °C
Dew Point: 51.2 °F /  10.7 °C 44.3 °F /  6.8 °C 46.7 °F /  8.2 °C
Humidity: 90% 73% 83%
Wind Speed: 2mph /  3.2km/h - 0.8mph /  1.3km/h
Wind Gust: 5mph /  8km/h - -
Wind- - West
Pressure: 30.10 in /  1019.2 hPa 30.07 in /  1018.2 hPa -
Precipitation: 0.00 in /  0 mm    
Historical Graphs
 
 
Tabular Data for July 20, 2021
Time Temperature Dew Point Pressure Wind Wind Speed Wind Gust Humidity Rainfall Rate (Hourly) solar Conditions
00:00 57.9 °F /  14.4 °C 49.3 °F /  9.6 °C 30.07in /  1018.2hPa WNW 1mph /  1.6km/h 2mph /  3.2km/h 73% 0.00in /  0mm 0 W/m2
00:10 57.6 °F /  14.2 °C 49.3 °F /  9.6 °C 30.07in /  1018.2hPa Calm   2mph /  3.2km/h 74% 0.00in /  0mm 0 W/m2
00:20 57 °F /  13.9 °C 48.8 °F /  9.3 °C 30.07in /  1018.2hPa Calm   1mph /  1.6km/h 74% 0.00in /  0mm 0 W/m2
00:30 56.8 °F /  13.8 °C 48.6 °F /  9.2 °C 30.07in /  1018.2hPa Calm     74% 0.00in /  0mm 0 W/m2
01:00 55.6 °F /  13.1 °C 48.5 °F /  9.2 °C 30.08in /  1018.5hPa Calm   1mph /  1.6km/h 77% 0.00in /  0mm 0 W/m2
01:10 55.2 °F /  12.9 °C 48.1 °F /  8.9 °C 30.08in /  1018.5hPa Calm   1mph /  1.6km/h 77% 0.00in /  0mm 0 W/m2
01:20 55 °F /  12.8 °C 48 °F /  8.9 °C 30.08in /  1018.5hPa Calm     77% 0.00in /  0mm 0 W/m2
01:30 54.7 °F /  12.6 °C 48 °F /  8.9 °C 30.08in /  1018.5hPa Calm   2mph /  3.2km/h 78% 0.00in /  0mm 0 W/m2
01:40 54.4 °F /  12.4 °C 47.7 °F /  8.7 °C 30.08in /  1018.5hPa Calm     78% 0.00in /  0mm 0 W/m2
01:50 54.1 °F /  12.3 °C 47.4 °F /  8.6 °C 30.08in /  1018.5hPa Calm   1mph /  1.6km/h 78% 0.00in /  0mm 0 W/m2
02:00 53.7 °F /  12.1 °C 47.3 °F /  8.5 °C 30.08in /  1018.5hPa Calm   1mph /  1.6km/h 79% 0.00in /  0mm 0 W/m2
02:10 53.2 °F /  11.8 °C 46.9 °F /  8.3 °C 30.08in /  1018.5hPa Calm   1mph /  1.6km/h 79% 0.00in /  0mm 0 W/m2
02:20 52.9 °F /  11.6 °C 46.9 °F /  8.3 °C 30.08in /  1018.5hPa NNW 1mph /  1.6km/h 1mph /  1.6km/h 80% 0.00in /  0mm 0 W/m2
02:30 52.3 °F /  11.3 °C 46.4 °F /  8 °C 30.08in /  1018.5hPa WNW 1mph /  1.6km/h 2mph /  3.2km/h 80% 0.00in /  0mm 0 W/m2
02:40 52 °F /  11.1 °C 46.3 °F /  7.9 °C 30.08in /  1018.5hPa NW 1mph /  1.6km/h 2mph /  3.2km/h 81% 0.00in /  0mm 0 W/m2
02:50 51.8 °F /  11 °C 46.2 °F /  7.9 °C 30.08in /  1018.5hPa WSW 1mph /  1.6km/h 3mph /  4.8km/h 81% 0.00in /  0mm 0 W/m2
03:00 51.6 °F /  10.9 °C 46.6 °F /  8.1 °C 30.08in /  1018.5hPa WNW 1mph /  1.6km/h 5mph /  8km/h 83% 0.00in /  0mm 0 W/m2
03:10 51.6 °F /  10.9 °C 46.6 °F /  8.1 °C 30.08in /  1018.5hPa WNW 1mph /  1.6km/h 3mph /  4.8km/h 83% 0.00in /  0mm 0 W/m2
03:20 51.4 °F /  10.8 °C 46.4 °F /  8 °C 30.08in /  1018.5hPa Calm   1mph /  1.6km/h 83% 0.00in /  0mm 0 W/m2
03:30 51.1 °F /  10.6 °C 46.1 °F /  7.8 °C 30.08in /  1018.5hPa NW 2mph /  3.2km/h 3mph /  4.8km/h 83% 0.00in /  0mm 0 W/m2
03:40 50.7 °F /  10.4 °C 46.1 °F /  7.8 °C 30.08in /  1018.5hPa WNW 1mph /  1.6km/h 2mph /  3.2km/h 84% 0.00in /  0mm 0 W/m2
03:50 50.5 °F /  10.3 °C 45.9 °F /  7.7 °C 30.08in /  1018.5hPa WNW 1mph /  1.6km/h 2mph /  3.2km/h 84% 0.00in /  0mm 0 W/m2
04:00 50.4 °F /  10.2 °C 45.7 °F /  7.6 °C 30.08in /  1018.5hPa West 1mph /  1.6km/h 3mph /  4.8km/h 84% 0.00in /  0mm 0 W/m2
04:10 50 °F /  10 °C 45.4 °F /  7.4 °C 30.08in /  1018.5hPa West 1mph /  1.6km/h 2mph /  3.2km/h 84% 0.00in /  0mm 0 W/m2
04:20 49.6 °F /  9.8 °C 45.3 °F /  7.4 °C 30.08in /  1018.5hPa Calm   2mph /  3.2km/h 85% 0.00in /  0mm 0 W/m2
04:30 49.5 °F /  9.7 °C 45.1 °F /  7.3 °C 30.08in /  1018.5hPa West 1mph /  1.6km/h 4mph /  6.4km/h 85% 0.00in /  0mm 0 W/m2
04:40 49.3 °F /  9.6 °C 45 °F /  7.2 °C 30.08in /  1018.5hPa West 1mph /  1.6km/h 3mph /  4.8km/h 85% 0.00in /  0mm 0 W/m2
04:50 49.5 °F /  9.7 °C 45.4 °F /  7.4 °C 30.08in /  1018.5hPa West 1mph /  1.6km/h 3mph /  4.8km/h 86% 0.00in /  0mm 0 W/m2
05:00 49.3 °F /  9.6 °C 45 °F /  7.2 °C 30.08in /  1018.5hPa WNW 1mph /  1.6km/h 3mph /  4.8km/h 85% 0.00in /  0mm 0 W/m2
05:10 49.4 °F /  9.7 °C 45.4 °F /  7.4 °C 30.08in /  1018.5hPa WNW 1mph /  1.6km/h 3mph /  4.8km/h 86% 0.00in /  0mm 0 W/m2
05:20 49.1 °F /  9.5 °C 45.1 °F /  7.3 °C 30.09in /  1018.8hPa NW 1mph /  1.6km/h 4mph /  6.4km/h 86% 0.00in /  0mm 0 W/m2
05:30 48.7 °F /  9.3 °C 44.7 °F /  7.1 °C 30.09in /  1018.8hPa WSW 1mph /  1.6km/h 3mph /  4.8km/h 86% 0.00in /  0mm 0 W/m2
05:40 48.3 °F /  9.1 °C 44.3 °F /  6.8 °C 30.09in /  1018.8hPa West 1mph /  1.6km/h 4mph /  6.4km/h 86% 0.00in /  0mm 0 W/m2
05:50 48 °F /  8.9 °C 44.6 °F /  7 °C 30.09in /  1018.8hPa West 2mph /  3.2km/h 3mph /  4.8km/h 88% 0.00in /  0mm 9 W/m2
06:00 48 °F /  8.9 °C 44.6 °F /  7 °C 30.09in /  1018.8hPa WSW 1mph /  1.6km/h 4mph /  6.4km/h 88% 0.00in /  0mm 17 W/m2
06:10 47.8 °F /  8.8 °C 44.5 °F /  6.9 °C 30.10in /  1019.2hPa West 1mph /  1.6km/h 3mph /  4.8km/h 88% 0.00in /  0mm 28 W/m2
06:20 47.8 °F /  8.8 °C 44.8 °F /  7.1 °C 30.10in /  1019.2hPa West 2mph /  3.2km/h 4mph /  6.4km/h 89% 0.00in /  0mm 49 W/m2
06:30 47.8 °F /  8.8 °C 44.8 °F /  7.1 °C 30.10in /  1019.2hPa West 2mph /  3.2km/h 3mph /  4.8km/h 89% 0.00in /  0mm 71 W/m2
06:40 48 °F /  8.9 °C 44.9 °F /  7.2 °C 30.10in /  1019.2hPa WSW 2mph /  3.2km/h 3mph /  4.8km/h 89% 0.00in /  0mm 95 W/m2
06:50 48.2 °F /  9 °C 45.1 °F /  7.3 °C 30.10in /  1019.2hPa WSW 2mph /  3.2km/h 3mph /  4.8km/h 89% 0.00in /  0mm 123 W/m2
07:00 48.7 °F /  9.3 °C 45.9 °F /  7.7 °C 30.10in /  1019.2hPa WNW 1mph /  1.6km/h 2mph /  3.2km/h 90% 0.00in /  0mm 150 W/m2
07:10 49.3 °F /  9.6 °C 46.2 °F /  7.9 °C 30.10in /  1019.2hPa West 1mph /  1.6km/h 3mph /  4.8km/h 89% 0.00in /  0mm 170 W/m2
07:20 49.9 °F /  9.9 °C 46.8 °F /  8.2 °C 30.10in /  1019.2hPa Calm   2mph /  3.2km/h 89% 0.00in /  0mm 206 W/m2
07:30 50.6 °F /  10.3 °C 47.5 °F /  8.6 °C 30.10in /  1019.2hPa West 1mph /  1.6km/h 2mph /  3.2km/h 89% 0.00in /  0mm 238 W/m2
07:40 51.4 °F /  10.8 °C 48 °F /  8.9 °C 30.10in /  1019.2hPa WNW 1mph /  1.6km/h 3mph /  4.8km/h 88% 0.00in /  0mm 278 W/m2
07:50 52.3 °F /  11.3 °C 48.9 °F /  9.4 °C 30.10in /  1019.2hPa Calm   2mph /  3.2km/h 88% 0.00in /  0mm 312 W/m2
08:00 53.3 °F /  11.8 °C 49.3 °F /  9.6 °C 30.10in /  1019.2hPa West 2mph /  3.2km/h 3mph /  4.8km/h 86% 0.00in /  0mm 335 W/m2
08:10 54.4 °F /  12.4 °C 49.7 °F /  9.8 °C 30.10in /  1019.2hPa WNW 1mph /  1.6km/h 4mph /  6.4km/h 84% 0.00in /  0mm 365 W/m2
08:20 55.6 °F /  13.1 °C 50.5 °F /  10.3 °C 30.10in /  1019.2hPa WSW 1mph /  1.6km/h 4mph /  6.4km/h 83% 0.00in /  0mm 397 W/m2
08:30 57 °F /  13.9 °C 51.2 °F /  10.7 °C 30.10in /  1019.2hPa WSW 1mph /  1.6km/h 3mph /  4.8km/h 81% 0.00in /  0mm 437 W/m2
Knjazevac, Serbia
Compliments of Weather Underground - 2 mb